sensor_id;sensor_type;location;lat;lon;timestamp;temperature;humidity
20732;DHT22;10527;52.124;5.196;2022-11-23T00:01:47;8.80;99.90
20732;DHT22;10527;52.124;5.196;2022-11-23T00:04:14;8.70;99.90
20732;DHT22;10527;52.124;5.196;2022-11-23T00:06:40;8.70;99.90
20732;DHT22;10527;52.124;5.196;2022-11-23T00:09:27;8.70;99.90
20732;DHT22;10527;52.124;5.196;2022-11-23T00:11:54;8.80;99.90
20732;DHT22;10527;52.124;5.196;2022-11-23T00:14:21;8.80;99.90
20732;DHT22;10527;52.124;5.196;2022-11-23T00:16:48;8.80;99.90
20732;DHT22;10527;52.124;5.196;2022-11-23T00:19:15;8.80;99.90
20732;DHT22;10527;52.124;5.196;2022-11-23T00:21:41;8.80;99.90
20732;DHT22;10527;52.124;5.196;2022-11-23T00:24:28;8.80;99.90
20732;DHT22;10527;52.124;5.196;2022-11-23T00:26:55;8.80;99.90
20732;DHT22;10527;52.124;5.196;2022-11-23T00:29:25;8.80;99.90
20732;DHT22;10527;52.124;5.196;2022-11-23T00:31:53;8.80;99.90
20732;DHT22;10527;52.124;5.196;2022-11-23T00:34:19;8.80;99.90
20732;DHT22;10527;52.124;5.196;2022-11-23T00:36:46;8.80;99.90
20732;DHT22;10527;52.124;5.196;2022-11-23T00:39:13;8.80;99.90
20732;DHT22;10527;52.124;5.196;2022-11-23T00:41:39;8.80;99.90
20732;DHT22;10527;52.124;5.196;2022-11-23T00:44:06;8.90;99.90
20732;DHT22;10527;52.124;5.196;2022-11-23T00:46:33;8.80;99.90
20732;DHT22;10527;52.124;5.196;2022-11-23T00:49:00;8.80;99.90
20732;DHT22;10527;52.124;5.196;2022-11-23T00:51:32;8.80;99.90
20732;DHT22;10527;52.124;5.196;2022-11-23T00:54:03;8.80;99.90
20732;DHT22;10527;52.124;5.196;2022-11-23T00:56:32;8.80;99.90
20732;DHT22;10527;52.124;5.196;2022-11-23T00:59:01;8.80;99.90
20732;DHT22;10527;52.124;5.196;2022-11-23T01:01:33;8.80;99.90
20732;DHT22;10527;52.124;5.196;2022-11-23T01:04:05;8.80;99.90
20732;DHT22;10527;52.124;5.196;2022-11-23T01:06:38;8.80;99.90
20732;DHT22;10527;52.124;5.196;2022-11-23T01:09:11;8.80;99.90
20732;DHT22;10527;52.124;5.196;2022-11-23T01:11:45;8.80;99.90
20732;DHT22;10527;52.124;5.196;2022-11-23T01:14:12;8.80;99.90
20732;DHT22;10527;52.124;5.196;2022-11-23T01:16:40;8.80;99.90
20732;DHT22;10527;52.124;5.196;2022-11-23T01:19:10;8.80;99.90
20732;DHT22;10527;52.124;5.196;2022-11-23T01:21:46;8.80;99.90
20732;DHT22;10527;52.124;5.196;2022-11-23T01:24:19;8.80;99.90
20732;DHT22;10527;52.124;5.196;2022-11-23T01:27:01;8.80;99.90
20732;DHT22;10527;52.124;5.196;2022-11-23T01:29:27;8.80;99.90
20732;DHT22;10527;52.124;5.196;2022-11-23T01:31:55;8.80;99.90
20732;DHT22;10527;52.124;5.196;2022-11-23T01:34:22;8.80;99.90
20732;DHT22;10527;52.124;5.196;2022-11-23T01:36:48;8.80;99.90
20732;DHT22;10527;52.124;5.196;2022-11-23T01:39:19;8.80;99.90
20732;DHT22;10527;52.124;5.196;2022-11-23T01:41:46;8.80;99.90
20732;DHT22;10527;52.124;5.196;2022-11-23T01:44:27;8.80;99.90
20732;DHT22;10527;52.124;5.196;2022-11-23T01:47:00;8.90;99.90
20732;DHT22;10527;52.124;5.196;2022-11-23T01:49:47;8.80;99.90
20732;DHT22;10527;52.124;5.196;2022-11-23T01:52:20;8.90;99.90
20732;DHT22;10527;52.124;5.196;2022-11-23T01:54:55;8.80;99.90
20732;DHT22;10527;52.124;5.196;2022-11-23T01:57:34;8.80;99.90
20732;DHT22;10527;52.124;5.196;2022-11-23T02:00:06;8.90;99.90
20732;DHT22;10527;52.124;5.196;2022-11-23T02:02:35;8.80;99.90
20732;DHT22;10527;52.124;5.196;2022-11-23T02:05:07;8.90;99.90
20732;DHT22;10527;52.124;5.196;2022-11-23T02:07:34;8.80;99.90
20732;DHT22;10527;52.124;5.196;2022-11-23T02:10:01;8.90;99.90
20732;DHT22;10527;52.124;5.196;2022-11-23T02:12:28;8.80;99.90
20732;DHT22;10527;52.124;5.196;2022-11-23T02:15:00;8.80;99.90
20732;DHT22;10527;52.124;5.196;2022-11-23T02:17:27;8.90;99.90
20732;DHT22;10527;52.124;5.196;2022-11-23T02:20:06;8.80;99.90
20732;DHT22;10527;52.124;5.196;2022-11-23T02:28:22;8.80;99.90
20732;DHT22;10527;52.124;5.196;2022-11-23T02:30:53;8.80;99.90
20732;DHT22;10527;52.124;5.196;2022-11-23T02:33:21;8.90;99.90
20732;DHT22;10527;52.124;5.196;2022-11-23T02:35:54;8.80;99.90
20732;DHT22;10527;52.124;5.196;2022-11-23T02:38:25;8.80;99.90
20732;DHT22;10527;52.124;5.196;2022-11-23T02:40:55;8.80;99.90
20732;DHT22;10527;52.124;5.196;2022-11-23T02:43:23;8.80;99.90
20732;DHT22;10527;52.124;5.196;2022-11-23T02:45:56;8.80;99.90
20732;DHT22;10527;52.124;5.196;2022-11-23T02:48:27;8.80;99.90
20732;DHT22;10527;52.124;5.196;2022-11-23T02:50:54;8.70;99.90
20732;DHT22;10527;52.124;5.196;2022-11-23T02:53:21;8.70;99.90
20732;DHT22;10527;52.124;5.196;2022-11-23T02:55:49;8.70;99.90
20732;DHT22;10527;52.124;5.196;2022-11-23T02:58:16;8.70;99.90
20732;DHT22;10527;52.124;5.196;2022-11-23T03:00:43;8.70;99.90
20732;DHT22;10527;52.124;5.196;2022-11-23T03:03:10;8.70;99.90
20732;DHT22;10527;52.124;5.196;2022-11-23T03:05:36;8.70;99.90
20732;DHT22;10527;52.124;5.196;2022-11-23T03:08:03;8.70;99.90
20732;DHT22;10527;52.124;5.196;2022-11-23T03:10:30;8.60;99.90
20732;DHT22;10527;52.124;5.196;2022-11-23T03:12:59;8.60;99.90
20732;DHT22;10527;52.124;5.196;2022-11-23T03:15:26;8.60;99.90
20732;DHT22;10527;52.124;5.196;2022-11-23T03:17:56;8.70;99.90
20732;DHT22;10527;52.124;5.196;2022-11-23T03:20:25;8.70;99.90
20732;DHT22;10527;52.124;5.196;2022-11-23T03:22:52;8.60;99.90
20732;DHT22;10527;52.124;5.196;2022-11-23T03:25:19;8.60;99.90
20732;DHT22;10527;52.124;5.196;2022-11-23T03:27:46;8.60;99.90
20732;DHT22;10527;52.124;5.196;2022-11-23T03:30:13;8.60;99.90
20732;DHT22;10527;52.124;5.196;2022-11-23T03:32:40;8.60;99.90
20732;DHT22;10527;52.124;5.196;2022-11-23T03:35:07;8.60;99.90
20732;DHT22;10527;52.124;5.196;2022-11-23T03:37:34;8.70;99.90
20732;DHT22;10527;52.124;5.196;2022-11-23T03:40:01;8.70;99.90
20732;DHT22;10527;52.124;5.196;2022-11-23T03:42:28;8.60;99.90
20732;DHT22;10527;52.124;5.196;2022-11-23T03:44:55;8.70;99.90
20732;DHT22;10527;52.124;5.196;2022-11-23T03:47:21;8.70;99.90
20732;DHT22;10527;52.124;5.196;2022-11-23T03:49:48;8.70;99.90
20732;DHT22;10527;52.124;5.196;2022-11-23T03:52:15;8.70;99.90
20732;DHT22;10527;52.124;5.196;2022-11-23T03:54:42;8.70;99.90
20732;DHT22;10527;52.124;5.196;2022-11-23T03:57:08;8.70;99.90
20732;DHT22;10527;52.124;5.196;2022-11-23T03:59:35;8.80;99.90
20732;DHT22;10527;52.124;5.196;2022-11-23T04:02:02;8.80;99.90
20732;DHT22;10527;52.124;5.196;2022-11-23T04:04:28;8.80;99.90
20732;DHT22;10527;52.124;5.196;2022-11-23T04:06:55;8.80;99.90
20732;DHT22;10527;52.124;5.196;2022-11-23T04:09:22;8.90;99.90
20732;DHT22;10527;52.124;5.196;2022-11-23T04:11:49;8.80;99.90
20732;DHT22;10527;52.124;5.196;2022-11-23T04:14:16;8.80;99.90
20732;DHT22;10527;52.124;5.196;2022-11-23T04:16:43;8.90;99.90
20732;DHT22;10527;52.124;5.196;2022-11-23T04:19:10;8.90;99.90
20732;DHT22;10527;52.124;5.196;2022-11-23T04:21:39;8.90;99.90
20732;DHT22;10527;52.124;5.196;2022-11-23T04:24:06;8.80;99.90
20732;DHT22;10527;52.124;5.196;2022-11-23T04:26:33;8.80;99.90
20732;DHT22;10527;52.124;5.196;2022-11-23T04:29:00;8.80;99.90
20732;DHT22;10527;52.124;5.196;2022-11-23T04:31:27;8.80;99.90
20732;DHT22;10527;52.124;5.196;2022-11-23T04:33:55;8.70;99.90
20732;DHT22;10527;52.124;5.196;2022-11-23T04:36:23;8.80;99.90
20732;DHT22;10527;52.124;5.196;2022-11-23T04:38:50;8.70;99.90
20732;DHT22;10527;52.124;5.196;2022-11-23T04:41:16;8.80;99.90
20732;DHT22;10527;52.124;5.196;2022-11-23T04:43:43;8.70;99.90
20732;DHT22;10527;52.124;5.196;2022-11-23T04:46:13;8.80;99.90
20732;DHT22;10527;52.124;5.196;2022-11-23T04:48:40;8.70;99.90
20732;DHT22;10527;52.124;5.196;2022-11-23T04:51:06;8.70;99.90
20732;DHT22;10527;52.124;5.196;2022-11-23T04:53:33;8.70;99.90
20732;DHT22;10527;52.124;5.196;2022-11-23T04:56:00;8.70;99.90
20732;DHT22;10527;52.124;5.196;2022-11-23T04:58:28;8.70;99.90
20732;DHT22;10527;52.124;5.196;2022-11-23T05:01:03;8.70;99.90
20732;DHT22;10527;52.124;5.196;2022-11-23T05:03:30;8.70;99.90
20732;DHT22;10527;52.124;5.196;2022-11-23T05:06:04;8.60;99.90
20732;DHT22;10527;52.124;5.196;2022-11-23T05:08:32;8.60;99.90
20732;DHT22;10527;52.124;5.196;2022-11-23T05:11:03;8.70;99.90
20732;DHT22;10527;52.124;5.196;2022-11-23T05:13:30;8.70;99.90
20732;DHT22;10527;52.124;5.196;2022-11-23T05:16:01;8.60;99.90
20732;DHT22;10527;52.124;5.196;2022-11-23T05:18:28;8.70;99.90
20732;DHT22;10527;52.124;5.196;2022-11-23T05:20:55;8.70;99.90
20732;DHT22;10527;52.124;5.196;2022-11-23T05:23:21;8.60;99.90
20732;DHT22;10527;52.124;5.196;2022-11-23T05:25:48;8.70;99.90
20732;DHT22;10527;52.124;5.196;2022-11-23T05:28:17;8.70;99.90
20732;DHT22;10527;52.124;5.196;2022-11-23T05:31:06;8.70;99.90
20732;DHT22;10527;52.124;5.196;2022-11-23T05:33:32;8.70;99.90
20732;DHT22;10527;52.124;5.196;2022-11-23T05:35:59;8.70;99.90
20732;DHT22;10527;52.124;5.196;2022-11-23T05:38:26;8.70;99.90
20732;DHT22;10527;52.124;5.196;2022-11-23T05:40:57;8.70;99.90
20732;DHT22;10527;52.124;5.196;2022-11-23T05:43:24;8.70;99.90
20732;DHT22;10527;52.124;5.196;2022-11-23T05:45:50;8.80;99.90
20732;DHT22;10527;52.124;5.196;2022-11-23T05:48:17;8.80;99.90
20732;DHT22;10527;52.124;5.196;2022-11-23T05:50:44;8.80;99.90
20732;DHT22;10527;52.124;5.196;2022-11-23T05:53:11;8.70;99.90
20732;DHT22;10527;52.124;5.196;2022-11-23T05:55:38;8.80;99.90
20732;DHT22;10527;52.124;5.196;2022-11-23T05:58:04;8.80;99.90
20732;DHT22;10527;52.124;5.196;2022-11-23T06:00:34;8.80;99.90
20732;DHT22;10527;52.124;5.196;2022-11-23T06:03:01;8.80;99.90
20732;DHT22;10527;52.124;5.196;2022-11-23T06:05:28;8.70;99.90
20732;DHT22;10527;52.124;5.196;2022-11-23T06:07:55;8.80;99.90
20732;DHT22;10527;52.124;5.196;2022-11-23T06:10:23;8.80;99.90
20732;DHT22;10527;52.124;5.196;2022-11-23T06:12:50;8.80;99.90
20732;DHT22;10527;52.124;5.196;2022-11-23T06:15:18;8.80;99.90
20732;DHT22;10527;52.124;5.196;2022-11-23T06:17:45;8.80;99.90
20732;DHT22;10527;52.124;5.196;2022-11-23T06:20:11;8.80;99.90
20732;DHT22;10527;52.124;5.196;2022-11-23T06:22:38;8.80;99.90
20732;DHT22;10527;52.124;5.196;2022-11-23T06:25:05;8.80;99.90
20732;DHT22;10527;52.124;5.196;2022-11-23T06:27:32;8.80;99.90
20732;DHT22;10527;52.124;5.196;2022-11-23T06:29:59;8.80;99.90
20732;DHT22;10527;52.124;5.196;2022-11-23T06:32:26;8.80;99.90
20732;DHT22;10527;52.124;5.196;2022-11-23T06:34:53;8.80;99.90
20732;DHT22;10527;52.124;5.196;2022-11-23T06:37:26;8.80;99.90
20732;DHT22;10527;52.124;5.196;2022-11-23T06:39:54;8.70;99.90
20732;DHT22;10527;52.124;5.196;2022-11-23T06:42:21;8.80;99.90
20732;DHT22;10527;52.124;5.196;2022-11-23T06:45:07;8.80;99.90
20732;DHT22;10527;52.124;5.196;2022-11-23T06:47:35;8.80;99.90
20732;DHT22;10527;52.124;5.196;2022-11-23T06:50:02;8.70;99.90
20732;DHT22;10527;52.124;5.196;2022-11-23T06:52:30;8.80;99.90
20732;DHT22;10527;52.124;5.196;2022-11-23T06:54:56;8.70;99.90
20732;DHT22;10527;52.124;5.196;2022-11-23T06:57:23;8.70;99.90
20732;DHT22;10527;52.124;5.196;2022-11-23T06:59:50;8.50;99.90
20732;DHT22;10527;52.124;5.196;2022-11-23T07:02:17;8.50;99.90
20732;DHT22;10527;52.124;5.196;2022-11-23T07:04:43;8.50;99.90
20732;DHT22;10527;52.124;5.196;2022-11-23T07:07:12;8.50;99.90
20732;DHT22;10527;52.124;5.196;2022-11-23T07:09:39;8.40;99.90
20732;DHT22;10527;52.124;5.196;2022-11-23T07:12:06;8.40;99.90
20732;DHT22;10527;52.124;5.196;2022-11-23T07:14:33;8.40;99.90
20732;DHT22;10527;52.124;5.196;2022-11-23T07:17:00;8.40;99.90
20732;DHT22;10527;52.124;5.196;2022-11-23T07:19:26;8.30;99.90
20732;DHT22;10527;52.124;5.196;2022-11-23T07:21:53;8.30;99.90
20732;DHT22;10527;52.124;5.196;2022-11-23T07:24:23;8.40;99.90
20732;DHT22;10527;52.124;5.196;2022-11-23T07:26:49;8.30;99.90
20732;DHT22;10527;52.124;5.196;2022-11-23T07:29:16;8.30;99.90
20732;DHT22;10527;52.124;5.196;2022-11-23T07:31:43;8.30;99.90
20732;DHT22;10527;52.124;5.196;2022-11-23T07:34:10;8.30;99.90
20732;DHT22;10527;52.124;5.196;2022-11-23T07:36:37;8.20;99.90
20732;DHT22;10527;52.124;5.196;2022-11-23T07:39:04;8.20;99.90
20732;DHT22;10527;52.124;5.196;2022-11-23T07:41:30;8.20;99.90
20732;DHT22;10527;52.124;5.196;2022-11-23T07:43:57;8.20;99.90
20732;DHT22;10527;52.124;5.196;2022-11-23T07:46:24;8.30;99.90
20732;DHT22;10527;52.124;5.196;2022-11-23T07:48:51;8.30;99.90
20732;DHT22;10527;52.124;5.196;2022-11-23T07:51:19;8.30;99.90
20732;DHT22;10527;52.124;5.196;2022-11-23T07:53:46;8.30;99.90
20732;DHT22;10527;52.124;5.196;2022-11-23T07:56:13;8.30;99.90
20732;DHT22;10527;52.124;5.196;2022-11-23T07:58:40;8.30;99.90
20732;DHT22;10527;52.124;5.196;2022-11-23T08:01:07;8.30;99.90
20732;DHT22;10527;52.124;5.196;2022-11-23T08:03:33;8.20;99.90
20732;DHT22;10527;52.124;5.196;2022-11-23T08:06:00;8.30;99.90
20732;DHT22;10527;52.124;5.196;2022-11-23T08:08:27;8.30;99.90
20732;DHT22;10527;52.124;5.196;2022-11-23T08:10:54;8.30;99.90
20732;DHT22;10527;52.124;5.196;2022-11-23T08:13:21;8.30;99.90
20732;DHT22;10527;52.124;5.196;2022-11-23T08:15:49;8.40;99.90
20732;DHT22;10527;52.124;5.196;2022-11-23T08:18:21;8.30;99.90
20732;DHT22;10527;52.124;5.196;2022-11-23T08:20:49;8.40;99.90
20732;DHT22;10527;52.124;5.196;2022-11-23T08:23:16;8.40;99.90
20732;DHT22;10527;52.124;5.196;2022-11-23T08:25:43;8.40;99.90
20732;DHT22;10527;52.124;5.196;2022-11-23T08:28:10;8.40;99.90
20732;DHT22;10527;52.124;5.196;2022-11-23T08:30:38;8.40;99.90
20732;DHT22;10527;52.124;5.196;2022-11-23T08:33:06;8.40;99.90
20732;DHT22;10527;52.124;5.196;2022-11-23T08:35:38;8.40;99.90
20732;DHT22;10527;52.124;5.196;2022-11-23T08:38:08;8.40;99.90
20732;DHT22;10527;52.124;5.196;2022-11-23T08:40:36;8.40;99.90
20732;DHT22;10527;52.124;5.196;2022-11-23T08:43:04;8.50;99.90
20732;DHT22;10527;52.124;5.196;2022-11-23T08:45:34;8.50;99.90
20732;DHT22;10527;52.124;5.196;2022-11-23T08:48:02;8.40;99.90
20732;DHT22;10527;52.124;5.196;2022-11-23T08:50:30;8.40;99.90
20732;DHT22;10527;52.124;5.196;2022-11-23T08:53:00;8.40;99.90
20732;DHT22;10527;52.124;5.196;2022-11-23T08:55:27;8.50;99.90
20732;DHT22;10527;52.124;5.196;2022-11-23T08:57:56;8.40;99.90
20732;DHT22;10527;52.124;5.196;2022-11-23T09:00:26;8.40;99.90
20732;DHT22;10527;52.124;5.196;2022-11-23T09:02:56;8.50;99.90
20732;DHT22;10527;52.124;5.196;2022-11-23T09:05:25;8.50;99.90
20732;DHT22;10527;52.124;5.196;2022-11-23T09:07:53;8.50;99.90
20732;DHT22;10527;52.124;5.196;2022-11-23T09:10:21;8.50;99.90
20732;DHT22;10527;52.124;5.196;2022-11-23T09:12:48;8.50;99.90
20732;DHT22;10527;52.124;5.196;2022-11-23T09:15:15;8.50;99.90
20732;DHT22;10527;52.124;5.196;2022-11-23T09:17:42;8.60;99.90
20732;DHT22;10527;52.124;5.196;2022-11-23T09:20:10;8.60;99.90
20732;DHT22;10527;52.124;5.196;2022-11-23T09:22:38;8.60;99.90
20732;DHT22;10527;52.124;5.196;2022-11-23T09:25:05;8.60;99.90
20732;DHT22;10527;52.124;5.196;2022-11-23T09:27:33;8.70;99.90
20732;DHT22;10527;52.124;5.196;2022-11-23T09:30:00;8.80;99.90
20732;DHT22;10527;52.124;5.196;2022-11-23T09:32:27;8.80;99.90
20732;DHT22;10527;52.124;5.196;2022-11-23T09:34:54;8.80;99.90
20732;DHT22;10527;52.124;5.196;2022-11-23T09:37:21;8.70;99.90
20732;DHT22;10527;52.124;5.196;2022-11-23T09:39:48;8.70;99.90
20732;DHT22;10527;52.124;5.196;2022-11-23T09:48:24;8.80;99.90
20732;DHT22;10527;52.124;5.196;2022-11-23T09:53:55;8.80;99.90
20732;DHT22;10527;52.124;5.196;2022-11-23T09:56:28;8.80;99.90
20732;DHT22;10527;52.124;5.196;2022-11-23T09:59:03;8.80;99.90
20732;DHT22;10527;52.124;5.196;2022-11-23T10:01:37;8.90;99.90
20732;DHT22;10527;52.124;5.196;2022-11-23T10:04:05;8.80;99.90
20732;DHT22;10527;52.124;5.196;2022-11-23T10:06:39;8.90;99.90
20732;DHT22;10527;52.124;5.196;2022-11-23T10:13:25;8.90;99.90
20732;DHT22;10527;52.124;5.196;2022-11-23T10:15:38;9.00;99.90
20732;DHT22;10527;52.124;5.196;2022-11-23T10:18:41;9.00;99.90
20732;DHT22;10527;52.124;5.196;2022-11-23T10:24:36;9.20;99.90
20732;DHT22;10527;52.124;5.196;2022-11-23T10:27:19;9.20;99.90
20732;DHT22;10527;52.124;5.196;2022-11-23T10:29:53;9.30;99.90
20732;DHT22;10527;52.124;5.196;2022-11-23T10:32:31;9.20;99.90
20732;DHT22;10527;52.124;5.196;2022-11-23T10:35:29;9.20;99.90
20732;DHT22;10527;52.124;5.196;2022-11-23T10:38:18;9.30;99.90
20732;DHT22;10527;52.124;5.196;2022-11-23T10:41:22;9.30;99.90
20732;DHT22;10527;52.124;5.196;2022-11-23T10:43:57;9.40;99.90
20732;DHT22;10527;52.124;5.196;2022-11-23T10:46:38;9.30;99.90
20732;DHT22;10527;52.124;5.196;2022-11-23T10:52:04;9.40;99.90
20732;DHT22;10527;52.124;5.196;2022-11-23T10:54:56;9.40;99.90
20732;DHT22;10527;52.124;5.196;2022-11-23T10:57:42;9.40;99.90
20732;DHT22;10527;52.124;5.196;2022-11-23T11:00:29;9.50;99.90
20732;DHT22;10527;52.124;5.196;2022-11-23T11:02:58;9.50;99.90
20732;DHT22;10527;52.124;5.196;2022-11-23T11:05:33;9.50;99.90
20732;DHT22;10527;52.124;5.196;2022-11-23T11:08:58;9.50;99.90
20732;DHT22;10527;52.124;5.196;2022-11-23T11:11:35;9.50;99.90
20732;DHT22;10527;52.124;5.196;2022-11-23T11:14:20;9.50;99.90
20732;DHT22;10527;52.124;5.196;2022-11-23T11:16:51;9.50;99.90
20732;DHT22;10527;52.124;5.196;2022-11-23T11:19:24;9.40;99.90
20732;DHT22;10527;52.124;5.196;2022-11-23T11:22:22;9.40;99.90
20732;DHT22;10527;52.124;5.196;2022-11-23T11:24:57;9.30;99.90
20732;DHT22;10527;52.124;5.196;2022-11-23T11:27:27;9.40;99.90
20732;DHT22;10527;52.124;5.196;2022-11-23T11:30:02;9.40;99.90
20732;DHT22;10527;52.124;5.196;2022-11-23T11:32:44;9.40;99.90
20732;DHT22;10527;52.124;5.196;2022-11-23T11:35:29;9.40;99.90
20732;DHT22;10527;52.124;5.196;2022-11-23T11:38:15;9.50;99.90
20732;DHT22;10527;52.124;5.196;2022-11-23T11:40:50;9.50;99.90
20732;DHT22;10527;52.124;5.196;2022-11-23T11:43:19;9.60;99.90
20732;DHT22;10527;52.124;5.196;2022-11-23T11:46:37;9.60;99.90
20732;DHT22;10527;52.124;5.196;2022-11-23T11:49:22;9.60;99.90
20732;DHT22;10527;52.124;5.196;2022-11-23T11:54:39;9.70;99.90
20732;DHT22;10527;52.124;5.196;2022-11-23T11:57:32;9.70;99.90
20732;DHT22;10527;52.124;5.196;2022-11-23T12:00:12;9.80;99.90
20732;DHT22;10527;52.124;5.196;2022-11-23T12:05:50;9.80;99.90
20732;DHT22;10527;52.124;5.196;2022-11-23T12:08:32;9.70;99.90
20732;DHT22;10527;52.124;5.196;2022-11-23T12:11:10;9.70;99.90
20732;DHT22;10527;52.124;5.196;2022-11-23T12:13:41;9.80;99.90
20732;DHT22;10527;52.124;5.196;2022-11-23T12:31:46;9.80;99.90
20732;DHT22;10527;52.124;5.196;2022-11-23T12:34:54;9.90;99.90
20732;DHT22;10527;52.124;5.196;2022-11-23T12:40:55;10.00;99.90
20732;DHT22;10527;52.124;5.196;2022-11-23T12:43:31;10.00;99.90
20732;DHT22;10527;52.124;5.196;2022-11-23T12:58:21;10.00;99.90
20732;DHT22;10527;52.124;5.196;2022-11-23T13:04:27;9.90;99.90
20732;DHT22;10527;52.124;5.196;2022-11-23T13:10:51;9.90;99.90
20732;DHT22;10527;52.124;5.196;2022-11-23T13:21:39;9.90;99.90
20732;DHT22;10527;52.124;5.196;2022-11-23T13:24:33;9.90;99.90
20732;DHT22;10527;52.124;5.196;2022-11-23T13:38:17;9.90;99.90
20732;DHT22;10527;52.124;5.196;2022-11-23T13:40:46;9.90;99.90
20732;DHT22;10527;52.124;5.196;2022-11-23T13:43:27;9.90;99.90
20732;DHT22;10527;52.124;5.196;2022-11-23T13:46:22;9.90;99.90
20732;DHT22;10527;52.124;5.196;2022-11-23T13:48:58;9.80;99.90
20732;DHT22;10527;52.124;5.196;2022-11-23T13:54:04;9.60;99.90
20732;DHT22;10527;52.124;5.196;2022-11-23T13:56:44;9.50;99.90
20732;DHT22;10527;52.124;5.196;2022-11-23T14:04:41;9.30;99.90
20732;DHT22;10527;52.124;5.196;2022-11-23T14:07:29;9.30;99.90
20732;DHT22;10527;52.124;5.196;2022-11-23T14:10:22;9.20;99.90
20732;DHT22;10527;52.124;5.196;2022-11-23T14:15:37;9.30;99.90
20732;DHT22;10527;52.124;5.196;2022-11-23T14:24:52;9.20;99.90
20732;DHT22;10527;52.124;5.196;2022-11-23T14:31:04;9.10;99.90
20732;DHT22;10527;52.124;5.196;2022-11-23T14:33:55;9.10;99.90
20732;DHT22;10527;52.124;5.196;2022-11-23T14:40:21;9.20;99.90
20732;DHT22;10527;52.124;5.196;2022-11-23T14:42:56;9.20;99.90
20732;DHT22;10527;52.124;5.196;2022-11-23T14:45:28;9.10;99.90
20732;DHT22;10527;52.124;5.196;2022-11-23T14:48:21;9.20;99.90
20732;DHT22;10527;52.124;5.196;2022-11-23T14:50:56;9.10;99.90
20732;DHT22;10527;52.124;5.196;2022-11-23T14:53:38;9.10;99.90
20732;DHT22;10527;52.124;5.196;2022-11-23T14:56:24;9.00;99.90
20732;DHT22;10527;52.124;5.196;2022-11-23T14:59:22;9.10;99.90
20732;DHT22;10527;52.124;5.196;2022-11-23T15:02:01;9.10;99.90
20732;DHT22;10527;52.124;5.196;2022-11-23T15:04:33;9.00;99.90
20732;DHT22;10527;52.124;5.196;2022-11-23T15:07:17;9.00;99.90
20732;DHT22;10527;52.124;5.196;2022-11-23T15:10:01;9.00;99.90
20732;DHT22;10527;52.124;5.196;2022-11-23T15:12:44;9.00;99.90
20732;DHT22;10527;52.124;5.196;2022-11-23T15:15:17;9.00;99.90
20732;DHT22;10527;52.124;5.196;2022-11-23T15:18:00;9.10;99.90
20732;DHT22;10527;52.124;5.196;2022-11-23T15:20:40;9.00;99.90
20732;DHT22;10527;52.124;5.196;2022-11-23T15:23:19;9.00;99.90
20732;DHT22;10527;52.124;5.196;2022-11-23T15:25:54;9.10;99.90
20732;DHT22;10527;52.124;5.196;2022-11-23T15:28:27;9.00;99.90
20732;DHT22;10527;52.124;5.196;2022-11-23T15:30:57;9.10;99.90
20732;DHT22;10527;52.124;5.196;2022-11-23T15:33:24;9.10;99.90
20732;DHT22;10527;52.124;5.196;2022-11-23T15:35:52;9.10;99.90
20732;DHT22;10527;52.124;5.196;2022-11-23T15:38:20;9.10;99.90
20732;DHT22;10527;52.124;5.196;2022-11-23T15:40:50;9.00;99.90
20732;DHT22;10527;52.124;5.196;2022-11-23T15:43:18;9.10;99.90
20732;DHT22;10527;52.124;5.196;2022-11-23T15:48:15;9.10;99.90
20732;DHT22;10527;52.124;5.196;2022-11-23T15:50:50;9.10;99.90
20732;DHT22;10527;52.124;5.196;2022-11-23T15:53:32;9.10;99.90
20732;DHT22;10527;52.124;5.196;2022-11-23T15:56:26;9.10;99.90
20732;DHT22;10527;52.124;5.196;2022-11-23T16:02:20;9.00;99.90
20732;DHT22;10527;52.124;5.196;2022-11-23T16:07:30;9.00;99.90
20732;DHT22;10527;52.124;5.196;2022-11-23T16:12:33;9.00;99.90
20732;DHT22;10527;52.124;5.196;2022-11-23T16:17:52;9.00;99.90
20732;DHT22;10527;52.124;5.196;2022-11-23T16:20:22;9.00;99.90
20732;DHT22;10527;52.124;5.196;2022-11-23T16:22:52;9.00;99.90
20732;DHT22;10527;52.124;5.196;2022-11-23T16:25:29;9.00;99.90
20732;DHT22;10527;52.124;5.196;2022-11-23T16:28:17;9.00;99.90
20732;DHT22;10527;52.124;5.196;2022-11-23T16:30:53;9.00;99.90
20732;DHT22;10527;52.124;5.196;2022-11-23T16:33:20;9.00;99.90
20732;DHT22;10527;52.124;5.196;2022-11-23T16:35:48;9.00;99.90
20732;DHT22;10527;52.124;5.196;2022-11-23T16:38:15;9.00;99.90
20732;DHT22;10527;52.124;5.196;2022-11-23T16:40:45;9.00;99.90
20732;DHT22;10527;52.124;5.196;2022-11-23T16:43:14;9.00;99.90
20732;DHT22;10527;52.124;5.196;2022-11-23T16:45:45;9.00;99.90
20732;DHT22;10527;52.124;5.196;2022-11-23T16:50:53;9.00;99.90
20732;DHT22;10527;52.124;5.196;2022-11-23T16:53:21;9.00;99.90
20732;DHT22;10527;52.124;5.196;2022-11-23T16:55:52;9.00;99.90
20732;DHT22;10527;52.124;5.196;2022-11-23T16:58:21;9.00;99.90
20732;DHT22;10527;52.124;5.196;2022-11-23T17:00:48;9.00;99.90
20732;DHT22;10527;52.124;5.196;2022-11-23T17:03:17;9.10;99.90
20732;DHT22;10527;52.124;5.196;2022-11-23T17:05:46;9.10;99.90
20732;DHT22;10527;52.124;5.196;2022-11-23T17:08:13;9.10;99.90
20732;DHT22;10527;52.124;5.196;2022-11-23T17:10:50;9.00;99.90
20732;DHT22;10527;52.124;5.196;2022-11-23T17:13:24;9.00;99.90
20732;DHT22;10527;52.124;5.196;2022-11-23T17:15:57;9.10;99.90
20732;DHT22;10527;52.124;5.196;2022-11-23T17:18:24;9.10;99.90
20732;DHT22;10527;52.124;5.196;2022-11-23T17:20:53;9.00;99.90
20732;DHT22;10527;52.124;5.196;2022-11-23T17:23:21;9.00;99.90
20732;DHT22;10527;52.124;5.196;2022-11-23T17:25:48;9.00;99.90
20732;DHT22;10527;52.124;5.196;2022-11-23T17:28:16;9.10;99.90
20732;DHT22;10527;52.124;5.196;2022-11-23T17:30:48;9.00;99.90
20732;DHT22;10527;52.124;5.196;2022-11-23T17:33:15;9.10;99.90
20732;DHT22;10527;52.124;5.196;2022-11-23T17:35:44;9.10;99.90
20732;DHT22;10527;52.124;5.196;2022-11-23T17:38:20;9.00;99.90
20732;DHT22;10527;52.124;5.196;2022-11-23T17:40:49;9.00;99.90
20732;DHT22;10527;52.124;5.196;2022-11-23T17:43:15;9.00;99.90
20732;DHT22;10527;52.124;5.196;2022-11-23T17:45:45;9.00;99.90
20732;DHT22;10527;52.124;5.196;2022-11-23T17:48:14;9.00;99.90
20732;DHT22;10527;52.124;5.196;2022-11-23T17:50:42;9.00;99.90
20732;DHT22;10527;52.124;5.196;2022-11-23T17:53:09;9.00;99.90
20732;DHT22;10527;52.124;5.196;2022-11-23T17:55:36;8.90;99.90
20732;DHT22;10527;52.124;5.196;2022-11-23T17:58:05;9.00;99.90
20732;DHT22;10527;52.124;5.196;2022-11-23T18:00:34;9.00;99.90
20732;DHT22;10527;52.124;5.196;2022-11-23T18:03:04;8.90;99.90
20732;DHT22;10527;52.124;5.196;2022-11-23T18:05:31;8.90;99.90
20732;DHT22;10527;52.124;5.196;2022-11-23T18:07:58;8.90;99.90
20732;DHT22;10527;52.124;5.196;2022-11-23T18:10:28;8.90;99.90
20732;DHT22;10527;52.124;5.196;2022-11-23T18:12:54;8.90;99.90
20732;DHT22;10527;52.124;5.196;2022-11-23T18:15:24;8.90;99.90
20732;DHT22;10527;52.124;5.196;2022-11-23T18:17:51;8.90;99.90
20732;DHT22;10527;52.124;5.196;2022-11-23T18:20:18;8.90;99.90
20732;DHT22;10527;52.124;5.196;2022-11-23T18:22:48;8.90;99.90